Time;durP1;ratioP1;P1;durP2;ratioP2;P2;SDS_P1;SDS_P2;PMS_P1;PMS_P2;Temp;Humidity;BMP_temperature;BMP_pressure;BME280_temperature;BME280_humidity;BME280_pressure;Samples;Min_cycle;Max_cycle;Signal;HPM_P1;HPM_P2
2022/11/21 00:00:59;;;;;;;49.83;29.10;;;;;;;;;;5116603;28;20221;-67
2022/11/21 00:03:28;;;;;;;57.47;28.95;;;;;;;;;;5115670;28;20193;-67
2022/11/21 00:05:55;;;;;;;45.75;26.33;;;;;;;;;;5116762;28;20203;-67
2022/11/21 00:08:22;;;;;;;42.10;26.65;;;;;;;;;;5116575;28;20204;-67
2022/11/21 00:10:49;;;;;;;50.15;27.27;;;;;;;;;;5116259;28;20238;-67
2022/11/21 00:13:17;;;;;;;48.53;29.95;;;;;;;;;;5116791;28;20204;-67
2022/11/21 00:15:45;;;;;;;47.53;28.73;;;;;;;;;;5116586;28;20197;-67
2022/11/21 00:18:12;;;;;;;51.63;28.52;;;;;;;;;;5116662;28;20194;-67
2022/11/21 00:20:41;;;;;;;53.33;29.60;;;;;;;;;;5116131;28;20213;-67
2022/11/21 00:23:08;;;;;;;47.25;26.35;;;;;;;;;;5116534;28;20200;-67
2022/11/21 00:25:36;;;;;;;44.97;26.90;;;;;;;;;;5116508;28;20193;-66
2022/11/21 00:28:03;;;;;;;45.60;26.40;;;;;;;;;;5116435;28;20198;-67
2022/11/21 00:30:30;;;;;;;49.10;30.00;;;;;;;;;;5116510;28;20251;-67
2022/11/21 00:32:58;;;;;;;45.97;27.98;;;;;;;;;;5116247;28;20281;-67
2022/11/21 00:35:26;;;;;;;50.65;28.75;;;;;;;;;;5115966;28;20197;-67
2022/11/21 00:37:54;;;;;;;37.97;24.05;;;;;;;;;;5116303;28;20216;-67
2022/11/21 00:40:21;;;;;;;42.67;24.88;;;;;;;;;;5116123;28;20193;-67
2022/11/21 00:42:48;;;;;;;45.33;26.88;;;;;;;;;;5116213;28;20678;-67
2022/11/21 00:45:16;;;;;;;39.80;25.58;;;;;;;;;;5115736;28;20200;-67
2022/11/21 00:47:43;;;;;;;47.47;28.40;;;;;;;;;;5115821;28;20681;-67
2022/11/21 00:50:10;;;;;;;48.75;28.23;;;;;;;;;;5115659;28;20681;-67
2022/11/21 00:52:37;;;;;;;52.25;28.25;;;;;;;;;;5115718;28;20204;-67
2022/11/21 00:55:06;;;;;;;45.97;26.88;;;;;;;;;;5115785;28;20658;-68
2022/11/21 00:57:33;;;;;;;47.92;28.30;;;;;;;;;;5115903;28;20535;-67
2022/11/21 01:00:01;;;;;;;43.67;26.00;;;;;;;;;;5115589;28;20670;-66
2022/11/21 01:02:28;;;;;;;50.90;27.70;;;;;;;;;;5116035;28;20308;-67
2022/11/21 01:04:55;;;;;;;54.95;29.92;;;;;;;;;;5115362;28;20284;-67
2022/11/21 01:07:22;;;;;;;43.72;28.95;;;;;;;;;;5115403;28;20189;-67
2022/11/21 01:09:49;;;;;;;49.92;31.80;;;;;;;;;;5115261;28;20199;-67
2022/11/21 01:12:18;;;;;;;46.90;28.35;;;;;;;;;;5115738;28;20631;-67
2022/11/21 01:14:45;;;;;;;49.10;28.63;;;;;;;;;;5115478;28;20193;-67
2022/11/21 01:17:12;;;;;;;48.58;28.63;;;;;;;;;;5115407;28;20197;-67
2022/11/21 01:19:39;;;;;;;49.28;28.08;;;;;;;;;;5115855;28;20561;-68
2022/11/21 01:22:06;;;;;;;53.60;30.95;;;;;;;;;;5115239;28;20221;-67
2022/11/21 01:24:34;;;;;;;55.58;30.77;;;;;;;;;;5115524;28;20193;-67
2022/11/21 01:27:01;;;;;;;59.38;30.50;;;;;;;;;;5114874;28;20642;-67
2022/11/21 01:29:29;;;;;;;55.67;29.55;;;;;;;;;;5115813;28;20225;-67
2022/11/21 01:31:57;;;;;;;52.05;30.77;;;;;;;;;;5114804;28;20201;-67
2022/11/21 01:34:24;;;;;;;50.05;29.85;;;;;;;;;;5115139;28;20189;-67
2022/11/21 01:36:51;;;;;;;56.45;31.05;;;;;;;;;;5115051;28;20197;-67
2022/11/21 01:39:18;;;;;;;45.90;28.27;;;;;;;;;;5115532;28;20194;-67
2022/11/21 01:41:46;;;;;;;50.95;31.70;;;;;;;;;;5115185;28;20243;-67
2022/11/21 01:44:17;;;;;;;50.05;30.35;;;;;;;;;;5115074;28;20264;-67
2022/11/21 01:46:46;;;;;;;48.88;28.20;;;;;;;;;;5114816;28;20195;-67
2022/11/21 01:49:14;;;;;;;51.35;31.25;;;;;;;;;;5115291;28;20196;-67
2022/11/21 01:51:43;;;;;;;51.88;27.83;;;;;;;;;;5114461;28;20205;-67
2022/11/21 01:54:12;;;;;;;54.30;31.15;;;;;;;;;;5114783;28;20197;-67
2022/11/21 01:56:41;;;;;;;47.40;26.60;;;;;;;;;;5114386;28;20201;-67
2022/11/21 01:59:10;;;;;;;47.40;28.17;;;;;;;;;;5114679;28;20195;-67
2022/11/21 02:01:37;;;;;;;47.65;26.73;;;;;;;;;;5114502;28;20235;-67
2022/11/21 02:04:07;;;;;;;47.92;26.17;;;;;;;;;;5114867;28;20200;-67
2022/11/21 02:06:36;;;;;;;53.85;29.73;;;;;;;;;;5114462;28;20189;-67
2022/11/21 02:09:04;;;;;;;47.92;28.38;;;;;;;;;;5114626;28;20205;-67
2022/11/21 02:11:33;;;;;;;51.38;29.40;;;;;;;;;;5114375;28;20199;-67
2022/11/21 02:14:00;;;;;;;43.67;27.55;;;;;;;;;;5114461;28;20194;-67
2022/11/21 02:16:28;;;;;;;49.88;28.92;;;;;;;;;;5113986;28;20224;-67
2022/11/21 02:18:55;;;;;;;45.10;25.73;;;;;;;;;;5114379;28;20557;-67
2022/11/21 02:21:29;;;;;;;48.63;27.90;;;;;;;;;;5113846;28;20213;-67
2022/11/21 02:24:01;;;;;;;44.15;27.58;;;;;;;;;;5114191;28;20643;-67
2022/11/21 02:26:29;;;;;;;53.90;27.45;;;;;;;;;;5113971;28;20193;-67
2022/11/21 02:28:57;;;;;;;46.80;28.25;;;;;;;;;;5114185;28;20193;-67
2022/11/21 02:31:24;;;;;;;50.42;29.92;;;;;;;;;;5114490;28;20198;-67
2022/11/21 02:33:51;;;;;;;52.15;29.77;;;;;;;;;;5113846;28;20651;-67
2022/11/21 02:36:32;;;;;;;45.42;28.50;;;;;;;;;;5114115;28;20654;-67
2022/11/21 02:38:59;;;;;;;42.45;28.25;;;;;;;;;;5114232;28;20536;-68
2022/11/21 02:41:28;;;;;;;48.42;27.67;;;;;;;;;;5113680;28;20221;-67
2022/11/21 02:44:00;;;;;;;42.88;28.10;;;;;;;;;;5113802;28;20643;-67
2022/11/21 02:46:27;;;;;;;45.45;27.58;;;;;;;;;;5113651;28;20182;-67
2022/11/21 02:48:55;;;;;;;47.80;30.42;;;;;;;;;;5114017;28;20195;-67
2022/11/21 02:51:22;;;;;;;40.25;25.83;;;;;;;;;;5113922;28;20555;-67
2022/11/21 02:53:49;;;;;;;48.13;29.48;;;;;;;;;;5114432;28;20573;-67
2022/11/21 02:56:16;;;;;;;47.05;29.20;;;;;;;;;;5113844;28;20198;-67
2022/11/21 02:58:44;;;;;;;48.35;28.80;;;;;;;;;;5113902;28;20199;-68
2022/11/21 03:01:12;;;;;;;54.15;29.50;;;;;;;;;;5114212;28;20281;-67
2022/11/21 03:03:39;;;;;;;52.80;29.50;;;;;;;;;;5113763;28;20222;-67
2022/11/21 03:06:07;;;;;;;49.85;29.67;;;;;;;;;;5113514;28;20196;-68
2022/11/21 03:08:34;;;;;;;45.22;28.50;;;;;;;;;;5113415;28;20678;-68
2022/11/21 03:11:01;;;;;;;38.42;25.55;;;;;;;;;;5113808;28;20280;-67
2022/11/21 03:13:28;;;;;;;44.00;27.42;;;;;;;;;;5113766;28;20210;-67
2022/11/21 03:15:55;;;;;;;49.13;27.65;;;;;;;;;;5114115;28;20200;-67
2022/11/21 03:18:24;;;;;;;45.70;28.13;;;;;;;;;;5113657;28;20200;-67
2022/11/21 03:20:51;;;;;;;42.55;27.95;;;;;;;;;;5113419;28;20197;-68
2022/11/21 03:23:18;;;;;;;45.90;29.00;;;;;;;;;;5113515;28;20233;-66
2022/11/21 03:25:45;;;;;;;47.17;28.52;;;;;;;;;;5113803;28;20198;-66
2022/11/21 03:28:13;;;;;;;48.75;27.23;;;;;;;;;;5113583;28;20194;-67
2022/11/21 03:30:40;;;;;;;51.17;27.90;;;;;;;;;;5113996;28;20207;-67
2022/11/21 03:33:07;;;;;;;49.30;31.33;;;;;;;;;;5113673;28;20207;-67
2022/11/21 03:35:35;;;;;;;51.28;29.33;;;;;;;;;;5113223;28;20203;-66
2022/11/21 03:38:03;;;;;;;50.08;28.58;;;;;;;;;;5113741;28;20200;-67
2022/11/21 03:40:30;;;;;;;40.33;27.63;;;;;;;;;;5117019;28;20203;-66
2022/11/21 03:42:57;;;;;;;51.78;28.50;;;;;;;;;;5116793;28;20234;-67
2022/11/21 03:45:24;;;;;;;48.97;27.13;;;;;;;;;;5117339;28;20205;-67
2022/11/21 03:47:51;;;;;;;45.13;27.80;;;;;;;;;;5117444;28;20292;-67
2022/11/21 03:50:20;;;;;;;44.80;29.35;;;;;;;;;;5117226;28;20193;-66
2022/11/21 03:52:48;;;;;;;51.42;30.70;;;;;;;;;;5117321;28;20215;-67
2022/11/21 03:55:16;;;;;;;47.60;30.00;;;;;;;;;;5117165;28;20189;-67
2022/11/21 03:57:43;;;;;;;49.78;29.77;;;;;;;;;;5116787;28;20681;-67
2022/11/21 04:00:10;;;;;;;47.55;30.15;;;;;;;;;;5116691;28;20655;-66
2022/11/21 04:02:38;;;;;;;43.92;28.00;;;;;;;;;;5116471;28;20223;-67
2022/11/21 04:05:05;;;;;;;55.92;30.15;;;;;;;;;;5116589;28;20200;-66
2022/11/21 04:07:32;;;;;;;50.67;28.90;;;;;;;;;;5116844;28;20284;-67
2022/11/21 04:10:01;;;;;;;51.67;28.73;;;;;;;;;;5116816;28;20198;-66
2022/11/21 04:12:28;;;;;;;47.75;29.15;;;;;;;;;;5116338;28;20296;-66
2022/11/21 04:14:55;;;;;;;47.20;28.75;;;;;;;;;;5116563;28;20702;-67
2022/11/21 04:17:23;;;;;;;49.10;29.60;;;;;;;;;;5116638;28;20189;-66
2022/11/21 04:19:50;;;;;;;48.88;28.50;;;;;;;;;;5116685;28;20288;-66
2022/11/21 04:22:17;;;;;;;50.35;28.65;;;;;;;;;;5116558;28;20223;-67
2022/11/21 04:24:44;;;;;;;43.72;27.35;;;;;;;;;;5116443;28;20196;-67
2022/11/21 04:27:13;;;;;;;48.97;30.92;;;;;;;;;;5116664;28;20195;-66
2022/11/21 04:29:40;;;;;;;52.38;28.30;;;;;;;;;;5116469;28;20554;-67
2022/11/21 04:32:07;;;;;;;45.15;26.75;;;;;;;;;;5116811;28;20555;-67
2022/11/21 04:34:34;;;;;;;46.40;28.60;;;;;;;;;;5116307;28;20532;-67
2022/11/21 04:37:01;;;;;;;41.22;26.80;;;;;;;;;;5116355;28;20223;-67
2022/11/21 04:39:29;;;;;;;44.45;28.48;;;;;;;;;;5116642;28;20555;-66
2022/11/21 04:41:56;;;;;;;43.85;26.88;;;;;;;;;;5115896;28;20236;-66
2022/11/21 04:44:24;;;;;;;42.03;26.83;;;;;;;;;;5116218;28;20193;-66
2022/11/21 04:46:52;;;;;;;49.42;29.17;;;;;;;;;;5116171;28;20197;-66
2022/11/21 04:49:19;;;;;;;48.55;28.50;;;;;;;;;;5115709;28;20208;-66
2022/11/21 04:51:46;;;;;;;45.20;26.75;;;;;;;;;;5115001;28;20209;-67
2022/11/21 04:54:13;;;;;;;45.28;29.10;;;;;;;;;;5115845;28;20285;-66
2022/11/21 04:56:40;;;;;;;47.90;29.63;;;;;;;;;;5115852;28;20201;-66
2022/11/21 04:59:08;;;;;;;44.83;29.23;;;;;;;;;;5115579;28;20207;-66
2022/11/21 05:01:38;;;;;;;51.85;27.23;;;;;;;;;;5115461;28;20686;-66
2022/11/21 05:04:12;;;;;;;47.15;29.75;;;;;;;;;;5115885;28;20534;-66
2022/11/21 05:06:39;;;;;;;43.53;26.40;;;;;;;;;;5115977;28;20193;-66
2022/11/21 05:09:07;;;;;;;49.50;29.50;;;;;;;;;;5115206;28;20195;-67
2022/11/21 05:14:18;;;;;;;51.95;30.83;;;;;;;;;;5115354;28;20225;-67
2022/11/21 05:16:47;;;;;;;51.22;30.80;;;;;;;;;;5115698;28;20560;-67
2022/11/21 05:19:14;;;;;;;44.00;28.17;;;;;;;;;;5115311;28;20199;-67
2022/11/21 05:21:41;;;;;;;53.72;30.38;;;;;;;;;;5115040;28;20269;-68
2022/11/21 05:24:09;;;;;;;50.70;28.35;;;;;;;;;;5115174;28;20195;-67
2022/11/21 05:26:36;;;;;;;47.30;29.20;;;;;;;;;;5115596;28;20202;-68
2022/11/21 05:29:04;;;;;;;44.90;28.95;;;;;;;;;;5115073;28;20285;-67
2022/11/21 05:31:31;;;;;;;52.92;31.40;;;;;;;;;;5115014;28;20193;-67
2022/11/21 05:33:59;;;;;;;48.33;27.58;;;;;;;;;;5114819;28;20197;-68
2022/11/21 05:36:27;;;;;;;46.33;27.63;;;;;;;;;;5114889;28;20199;-68
2022/11/21 05:38:54;;;;;;;54.28;30.50;;;;;;;;;;5114869;28;20197;-67
2022/11/21 05:41:21;;;;;;;50.55;30.48;;;;;;;;;;5114530;28;20202;-68
2022/11/21 05:43:48;;;;;;;48.90;29.13;;;;;;;;;;5114434;28;20678;-67
2022/11/21 05:46:16;;;;;;;51.75;30.65;;;;;;;;;;5114820;28;20239;-68
2022/11/21 05:48:43;;;;;;;56.60;30.98;;;;;;;;;;5114793;28;20195;-68
2022/11/21 05:51:12;;;;;;;54.30;31.73;;;;;;;;;;5114319;28;20194;-67
2022/11/21 05:53:39;;;;;;;61.35;29.20;;;;;;;;;;5114168;28;20197;-67
2022/11/21 05:56:07;;;;;;;51.92;30.70;;;;;;;;;;5114701;28;20558;-67
2022/11/21 05:58:35;;;;;;;52.40;30.75;;;;;;;;;;5114572;28;20284;-68
2022/11/21 06:01:02;;;;;;;57.03;32.97;;;;;;;;;;5114292;28;20542;-68
2022/11/21 06:03:31;;;;;;;55.67;32.60;;;;;;;;;;5114104;28;20214;-66
2022/11/21 06:06:02;;;;;;;57.65;33.13;;;;;;;;;;5114402;28;20219;-67
2022/11/21 06:08:32;;;;;;;60.17;32.08;;;;;;;;;;5114717;28;20201;-67
2022/11/21 06:10:59;;;;;;;57.10;33.28;;;;;;;;;;5114143;28;20199;-67
2022/11/21 06:13:27;;;;;;;50.28;30.63;;;;;;;;;;5114418;28;20194;-70
2022/11/21 06:15:56;;;;;;;62.15;37.40;;;;;;;;;;5114051;28;20756;-67
2022/11/21 06:18:23;;;;;;;54.33;32.03;;;;;;;;;;5114390;28;20199;-68
2022/11/21 06:20:51;;;;;;;61.88;34.65;;;;;;;;;;5114217;28;20585;-68
2022/11/21 06:23:18;;;;;;;52.72;31.30;;;;;;;;;;5114186;28;20249;-68
2022/11/21 06:25:47;;;;;;;59.13;34.95;;;;;;;;;;5114145;28;20193;-68
2022/11/21 06:28:14;;;;;;;63.92;33.75;;;;;;;;;;5113889;28;20232;-68
2022/11/21 06:30:42;;;;;;;62.40;34.47;;;;;;;;;;5114274;28;20557;-67
2022/11/21 06:33:09;;;;;;;64.63;36.75;;;;;;;;;;5114148;28;20205;-67
2022/11/21 06:35:39;;;;;;;67.63;34.50;;;;;;;;;;5113922;28;20190;-67
2022/11/21 06:38:06;;;;;;;60.58;32.55;;;;;;;;;;5114586;28;20193;-67
2022/11/21 06:40:33;;;;;;;59.22;34.80;;;;;;;;;;5113844;28;20193;-68
2022/11/21 06:43:02;;;;;;;64.45;33.15;;;;;;;;;;5113797;28;20235;-68
2022/11/21 06:45:29;;;;;;;66.35;36.30;;;;;;;;;;5113565;28;20198;-68
2022/11/21 06:47:56;;;;;;;68.80;35.60;;;;;;;;;;5113574;28;20202;-68
2022/11/21 06:50:23;;;;;;;58.20;33.50;;;;;;;;;;5113886;28;20223;-67
2022/11/21 06:52:51;;;;;;;67.07;34.80;;;;;;;;;;5114145;28;20305;-68
2022/11/21 06:55:20;;;;;;;63.83;35.67;;;;;;;;;;5113826;28;20208;-68
2022/11/21 06:57:47;;;;;;;71.78;34.53;;;;;;;;;;5113879;28;20221;-69
2022/11/21 07:00:16;;;;;;;58.25;34.30;;;;;;;;;;5113813;28;20202;-68
2022/11/21 07:02:44;;;;;;;61.75;34.83;;;;;;;;;;5113751;28;20224;-67
2022/11/21 07:05:11;;;;;;;69.00;35.58;;;;;;;;;;5113513;28;20189;-68
2022/11/21 07:07:38;;;;;;;60.85;32.35;;;;;;;;;;5113575;28;20193;-68
2022/11/21 07:10:06;;;;;;;70.10;35.55;;;;;;;;;;5113774;28;20194;-68
2022/11/21 07:15:19;;;;;;;64.57;36.35;;;;;;;;;;5117770;28;20272;-68
2022/11/21 07:17:46;;;;;;;71.60;35.70;;;;;;;;;;5117926;28;20190;-68
2022/11/21 07:20:14;;;;;;;60.33;33.72;;;;;;;;;;5117665;28;20200;-67
2022/11/21 07:22:41;;;;;;;72.28;34.58;;;;;;;;;;5117654;28;20220;-67
2022/11/21 07:25:08;;;;;;;61.40;34.97;;;;;;;;;;5117877;28;20247;-68
2022/11/21 07:27:35;;;;;;;67.28;33.97;;;;;;;;;;5117449;28;20666;-67
2022/11/21 07:30:03;;;;;;;60.83;34.97;;;;;;;;;;5117665;28;20291;-67
2022/11/21 07:32:31;;;;;;;57.67;31.67;;;;;;;;;;5117559;28;20294;-68
2022/11/21 07:34:58;;;;;;;61.58;35.13;;;;;;;;;;5117100;28;20200;-68
2022/11/21 07:37:26;;;;;;;68.70;34.33;;;;;;;;;;5117161;28;20194;-69
2022/11/21 07:39:53;;;;;;;54.63;30.90;;;;;;;;;;5117463;28;20290;-68
2022/11/21 07:42:20;;;;;;;63.08;33.40;;;;;;;;;;5117241;28;20236;-68
2022/11/21 07:44:47;;;;;;;61.63;32.00;;;;;;;;;;5117125;28;20196;-69
2022/11/21 07:47:14;;;;;;;65.22;34.50;;;;;;;;;;5117194;28;20284;-68
2022/11/21 07:49:43;;;;;;;58.67;33.45;;;;;;;;;;5117211;28;20195;-68
2022/11/21 07:52:11;;;;;;;67.47;34.65;;;;;;;;;;5116744;28;20200;-69
2022/11/21 07:54:38;;;;;;;68.18;33.10;;;;;;;;;;5117092;28;20645;-68
2022/11/21 07:57:06;;;;;;;60.58;31.08;;;;;;;;;;5116924;28;20248;-68
2022/11/21 07:59:33;;;;;;;68.30;35.63;;;;;;;;;;5117039;28;20618;-68
2022/11/21 08:02:00;;;;;;;64.85;33.42;;;;;;;;;;5116868;28;20199;-68
2022/11/21 08:04:27;;;;;;;61.20;33.47;;;;;;;;;;5116819;28;20227;-68
2022/11/21 08:06:56;;;;;;;67.93;33.90;;;;;;;;;;5116473;28;20379;-68
2022/11/21 08:09:23;;;;;;;64.00;34.20;;;;;;;;;;5116748;28;20199;-67
2022/11/21 08:11:50;;;;;;;65.53;32.60;;;;;;;;;;5116867;28;20201;-67
2022/11/21 08:14:18;;;;;;;70.53;33.80;;;;;;;;;;5116778;28;20236;-67
2022/11/21 08:16:45;;;;;;;66.05;34.80;;;;;;;;;;5116666;28;20206;-68
2022/11/21 08:19:12;;;;;;;76.25;35.75;;;;;;;;;;5116698;28;20200;-68
2022/11/21 08:21:39;;;;;;;73.07;34.88;;;;;;;;;;5116421;28;20295;-67
2022/11/21 08:24:12;;;;;;;78.82;33.35;;;;;;;;;;5116181;28;20392;-68
2022/11/21 08:26:39;;;;;;;76.35;32.00;;;;;;;;;;5116444;28;20194;-68
2022/11/21 08:29:06;;;;;;;68.63;34.58;;;;;;;;;;5117300;28;20291;-68
2022/11/21 08:31:33;;;;;;;82.00;35.70;;;;;;;;;;5116534;28;20201;-69
2022/11/21 08:34:01;;;;;;;81.90;37.03;;;;;;;;;;5116351;28;20207;-68
2022/11/21 08:36:28;;;;;;;94.28;37.72;;;;;;;;;;5116211;28;20193;-69
2022/11/21 08:38:55;;;;;;;94.43;38.53;;;;;;;;;;5116279;28;20194;-68
2022/11/21 08:44:11;;;;;;;66.28;34.55;;;;;;;;;;5081466;28;20746;-67
2022/11/21 08:46:38;;;;;;;79.07;34.42;;;;;;;;;;5116108;28;20196;-67
2022/11/21 08:49:06;;;;;;;78.40;34.58;;;;;;;;;;5115799;28;20674;-68
2022/11/21 08:51:33;;;;;;;81.65;35.40;;;;;;;;;;5115605;28;20198;-68
2022/11/21 08:54:00;;;;;;;83.30;38.78;;;;;;;;;;5116515;28;20272;-68
2022/11/21 08:56:29;;;;;;;83.15;36.05;;;;;;;;;;5116284;28;20198;-68
2022/11/21 08:58:56;;;;;;;71.55;36.33;;;;;;;;;;5115591;28;20198;-68
2022/11/21 09:01:24;;;;;;;87.00;36.10;;;;;;;;;;5115424;28;20233;-67
2022/11/21 09:03:51;;;;;;;76.32;34.17;;;;;;;;;;5115414;28;20215;-68
2022/11/21 09:06:18;;;;;;;78.07;34.78;;;;;;;;;;5115377;28;20654;-68
2022/11/21 09:08:45;;;;;;;92.35;37.78;;;;;;;;;;5115038;28;20542;-69
2022/11/21 09:11:12;;;;;;;78.47;34.78;;;;;;;;;;5115341;28;20252;-67
2022/11/21 09:18:01;;;;;;;81.47;36.45;;;;;;;;;;5115744;28;20289;-67
2022/11/21 09:19:18;;;;;;;69.28;31.67;;;;;;;;;;5115197;28;20581;-67
2022/11/21 09:21:45;;;;;;;64.38;32.38;;;;;;;;;;5115051;28;20759;-67
2022/11/21 09:24:12;;;;;;;70.30;33.22;;;;;;;;;;5115300;28;20226;-68
2022/11/21 09:26:40;;;;;;;66.53;32.13;;;;;;;;;;5115428;28;20552;-67
2022/11/21 09:29:09;;;;;;;67.47;32.75;;;;;;;;;;5115204;28;20200;-67
2022/11/21 09:31:38;;;;;;;58.25;31.50;;;;;;;;;;5114742;28;20721;-68
2022/11/21 09:34:05;;;;;;;62.22;33.03;;;;;;;;;;5115151;28;20197;-68
2022/11/21 09:36:32;;;;;;;63.58;31.73;;;;;;;;;;5114410;28;20196;-69
2022/11/21 09:38:59;;;;;;;69.63;34.28;;;;;;;;;;5117019;28;20194;-68
2022/11/21 09:44:22;;;;;;;66.97;33.88;;;;;;;;;;5108018;28;20306;-68
2022/11/21 09:46:53;;;;;;;67.47;31.38;;;;;;;;;;5115228;28;20180;-68
2022/11/21 09:49:22;;;;;;;64.55;33.15;;;;;;;;;;5114640;28;20209;-68
2022/11/21 09:51:51;;;;;;;60.58;31.65;;;;;;;;;;5115089;28;20195;-68
2022/11/21 09:54:20;;;;;;;68.45;33.28;;;;;;;;;;5115530;28;20305;-68
2022/11/21 09:56:48;;;;;;;61.88;31.42;;;;;;;;;;5114277;28;20224;-68
2022/11/21 09:59:24;;;;;;;62.40;33.47;;;;;;;;;;5115119;28;20200;-69
2022/11/21 10:01:53;;;;;;;69.50;31.38;;;;;;;;;;5114882;28;20184;-69
2022/11/21 10:04:20;;;;;;;64.35;32.78;;;;;;;;;;5114586;28;20221;-68
2022/11/21 10:06:53;;;;;;;63.08;30.15;;;;;;;;;;5114558;28;20561;-69
2022/11/21 10:09:24;;;;;;;59.47;29.30;;;;;;;;;;5115093;28;20261;-68
2022/11/21 10:14:49;;;;;;;62.42;31.23;;;;;;;;;;5114317;28;20197;-69
2022/11/21 10:17:23;;;;;;;60.65;32.10;;;;;;;;;;5114976;28;20559;-68
2022/11/21 10:19:56;;;;;;;63.70;29.35;;;;;;;;;;5114581;28;20182;-68
2022/11/21 10:22:38;;;;;;;71.32;32.13;;;;;;;;;;5114449;28;20279;-68
2022/11/21 10:25:12;;;;;;;59.78;29.08;;;;;;;;;;5113945;28;20209;-68
2022/11/21 10:27:41;;;;;;;63.42;30.48;;;;;;;;;;5113936;28;20658;-68
2022/11/21 10:30:15;;;;;;;60.92;27.58;;;;;;;;;;5114415;28;20194;-68
2022/11/21 10:32:45;;;;;;;66.32;31.38;;;;;;;;;;5113801;28;20218;-68
2022/11/21 10:35:16;;;;;;;61.35;31.58;;;;;;;;;;5113880;28;20695;-68
2022/11/21 10:37:47;;;;;;;68.68;31.58;;;;;;;;;;5113667;28;20190;-68
2022/11/21 10:40:23;;;;;;;63.65;30.63;;;;;;;;;;5114028;28;20183;-68
2022/11/21 10:42:52;;;;;;;58.78;28.88;;;;;;;;;;5114173;28;20226;-68
2022/11/21 10:45:19;;;;;;;61.63;29.48;;;;;;;;;;5113643;28;20709;-68
2022/11/21 10:47:49;;;;;;;66.00;29.00;;;;;;;;;;5113277;28;20718;-68
2022/11/21 10:50:43;;;;;;;65.35;32.30;;;;;;;;;;5113864;28;20206;-68
2022/11/21 10:56:01;;;;;;;68.75;32.90;;;;;;;;;;5113720;28;20205;-67
2022/11/21 10:58:35;;;;;;;68.32;30.77;;;;;;;;;;5113916;28;20193;-68
2022/11/21 11:01:02;;;;;;;68.28;30.73;;;;;;;;;;5114060;28;20199;-68
2022/11/21 11:03:32;;;;;;;65.53;30.05;;;;;;;;;;5113760;28;20232;-68
2022/11/21 11:05:59;;;;;;;77.95;32.72;;;;;;;;;;5113739;28;20200;-68
2022/11/21 11:08:27;;;;;;;62.42;31.52;;;;;;;;;;5113636;28;20199;-68
2022/11/21 11:11:05;;;;;;;66.15;31.20;;;;;;;;;;5113807;28;20194;-69
2022/11/21 11:13:36;;;;;;;67.15;31.75;;;;;;;;;;5113508;28;20372;-68
2022/11/21 11:16:07;;;;;;;77.60;33.63;;;;;;;;;;5114052;28;20200;-67
2022/11/21 11:18:38;;;;;;;71.85;33.95;;;;;;;;;;5113713;28;20285;-68
2022/11/21 11:21:16;;;;;;;65.55;32.67;;;;;;;;;;5113987;28;20185;-68
2022/11/21 11:23:43;;;;;;;77.50;36.30;;;;;;;;;;5113496;28;20223;-69
2022/11/21 11:26:21;;;;;;;77.50;34.45;;;;;;;;;;5113129;28;20199;-68
2022/11/21 11:28:49;;;;;;;81.03;35.35;;;;;;;;;;5113394;28;20199;-68
2022/11/21 11:31:16;;;;;;;69.38;33.92;;;;;;;;;;5113600;28;20198;-68
2022/11/21 11:33:51;;;;;;;85.95;36.03;;;;;;;;;;5113213;28;20204;-67
2022/11/21 11:36:24;;;;;;;73.65;35.10;;;;;;;;;;5113240;28;20179;-67
2022/11/21 11:38:53;;;;;;;76.03;35.03;;;;;;;;;;5113447;28;20184;-67
2022/11/21 11:41:28;;;;;;;73.25;34.25;;;;;;;;;;5113166;28;20196;-67
2022/11/21 11:52:32;;;;;;;70.40;35.53;;;;;;;;;;5106281;28;20287;-67
2022/11/21 11:55:01;;;;;;;80.53;36.60;;;;;;;;;;5113264;28;20202;-67
2022/11/21 11:57:31;;;;;;;78.70;38.05;;;;;;;;;;5113041;28;20234;-67
2022/11/21 12:00:02;;;;;;;81.75;35.55;;;;;;;;;;5113826;28;20295;-68
2022/11/21 12:02:34;;;;;;;67.60;35.88;;;;;;;;;;5117376;28;20536;-67
2022/11/21 12:05:05;;;;;;;76.15;34.42;;;;;;;;;;5116554;28;20205;-67
2022/11/21 12:07:34;;;;;;;78.68;34.33;;;;;;;;;;5116711;28;20643;-68
2022/11/21 12:10:07;;;;;;;68.95;35.47;;;;;;;;;;5116450;28;20201;-67
2022/11/21 12:12:36;;;;;;;66.95;34.55;;;;;;;;;;5117367;28;20545;-67
2022/11/21 12:17:53;;;;;;;58.75;32.80;;;;;;;;;;5116550;28;20232;-68
2022/11/21 12:20:23;;;;;;;56.30;31.25;;;;;;;;;;5116804;28;20188;-68
2022/11/21 12:22:52;;;;;;;56.15;30.98;;;;;;;;;;5116346;28;20188;-68
2022/11/21 12:25:22;;;;;;;57.70;32.50;;;;;;;;;;5116016;28;20222;-67
2022/11/21 12:27:54;;;;;;;56.33;33.17;;;;;;;;;;5116405;28;20201;-67
2022/11/21 12:30:39;;;;;;;54.75;31.80;;;;;;;;;;5116177;28;20183;-67
2022/11/21 12:33:11;;;;;;;61.67;32.05;;;;;;;;;;5116059;28;20191;-67
2022/11/21 12:35:50;;;;;;;57.45;30.45;;;;;;;;;;5116237;28;20224;-67
2022/11/21 12:38:27;;;;;;;59.70;30.77;;;;;;;;;;5115996;28;20751;-67
2022/11/21 12:41:00;;;;;;;67.75;32.33;;;;;;;;;;5116152;28;20209;-67
2022/11/21 12:43:32;;;;;;;55.45;30.08;;;;;;;;;;5116341;28;20588;-67
2022/11/21 12:46:03;;;;;;;60.55;31.30;;;;;;;;;;5116057;28;20207;-67
2022/11/21 12:55:07;;;;;;;54.35;27.33;;;;;;;;;;5033486;28;20751;-67
2022/11/21 12:57:40;;;;;;;55.33;28.75;;;;;;;;;;5039695;28;20204;-67
2022/11/21 13:00:10;;;;;;;54.45;30.55;;;;;;;;;;5053148;28;20202;-68
2022/11/21 13:02:41;;;;;;;56.70;28.70;;;;;;;;;;5084990;28;20211;-67
2022/11/21 13:05:10;;;;;;;55.65;25.15;;;;;;;;;;5115792;28;20677;-67
2022/11/21 13:07:38;;;;;;;58.35;29.45;;;;;;;;;;5116302;28;20528;-68
2022/11/21 13:10:06;;;;;;;62.33;28.90;;;;;;;;;;5115759;28;20294;-67
2022/11/21 13:12:36;;;;;;;67.97;30.10;;;;;;;;;;5115081;28;20194;-67
2022/11/21 13:15:09;;;;;;;78.35;33.65;;;;;;;;;;5115997;28;20210;-67
2022/11/21 13:17:42;;;;;;;56.88;28.75;;;;;;;;;;5115993;28;20275;-68
2022/11/21 13:20:16;;;;;;;57.47;26.10;;;;;;;;;;5115442;28;20214;-67
2022/11/21 13:22:50;;;;;;;54.97;27.10;;;;;;;;;;5116193;28;20236;-67
2022/11/21 13:25:38;;;;;;;49.33;25.23;;;;;;;;;;5115194;28;20225;-67
2022/11/21 13:28:24;;;;;;;57.92;28.80;;;;;;;;;;5115221;28;20192;-67
2022/11/21 13:30:53;;;;;;;63.10;26.92;;;;;;;;;;5114985;28;20724;-67
2022/11/21 13:33:39;;;;;;;60.00;27.55;;;;;;;;;;5115186;28;20196;-67
2022/11/21 13:36:07;;;;;;;59.47;26.45;;;;;;;;;;5114725;28;20257;-67
2022/11/21 13:38:49;;;;;;;56.70;25.40;;;;;;;;;;5115108;28;20286;-67
2022/11/21 13:44:39;;;;;;;62.15;28.73;;;;;;;;;;5074480;28;20258;-67
2022/11/21 13:47:12;;;;;;;68.55;28.50;;;;;;;;;;5073976;28;20189;-67
2022/11/21 13:49:44;;;;;;;57.60;25.73;;;;;;;;;;5074473;28;20188;-67
2022/11/21 13:52:21;;;;;;;64.70;27.42;;;;;;;;;;5074200;28;20191;-67
2022/11/21 13:55:04;;;;;;;67.05;27.27;;;;;;;;;;5073821;28;20583;-70
2022/11/21 13:57:48;;;;;;;53.97;27.15;;;;;;;;;;5067795;28;20295;-66
2022/11/21 14:00:25;;;;;;;62.40;25.75;;;;;;;;;;5053106;28;20221;-66
2022/11/21 14:03:26;;;;;;;60.58;26.98;;;;;;;;;;5053641;28;20210;-66
2022/11/21 14:06:00;;;;;;;55.35;26.83;;;;;;;;;;5054208;28;20567;-68
2022/11/21 14:08:28;;;;;;;67.30;27.60;;;;;;;;;;5054486;28;20624;-65
2022/11/21 14:10:56;;;;;;;54.83;26.65;;;;;;;;;;5053911;28;20197;-65
2022/11/21 14:13:27;;;;;;;55.30;27.55;;;;;;;;;;5053714;28;20205;-65
2022/11/21 14:16:05;;;;;;;62.25;28.17;;;;;;;;;;5054043;28;20200;-65
2022/11/21 14:18:34;;;;;;;68.22;28.48;;;;;;;;;;5054353;28;20529;-65
2022/11/21 14:21:02;;;;;;;76.20;29.05;;;;;;;;;;5053673;28;20232;-65
2022/11/21 14:23:30;;;;;;;58.63;27.10;;;;;;;;;;5066498;28;20205;-65
2022/11/21 14:26:00;;;;;;;62.35;26.83;;;;;;;;;;5073555;28;20314;-65
2022/11/21 14:28:27;;;;;;;53.45;25.05;;;;;;;;;;5071856;28;20205;-65
2022/11/21 14:30:56;;;;;;;68.65;28.70;;;;;;;;;;5072796;28;20757;-65
2022/11/21 14:33:25;;;;;;;64.85;27.90;;;;;;;;;;5073005;28;20202;-65
2022/11/21 14:35:54;;;;;;;54.35;28.67;;;;;;;;;;5072977;28;20201;-64
2022/11/21 14:38:22;;;;;;;65.03;28.40;;;;;;;;;;5073016;28;20672;-65
2022/11/21 14:40:49;;;;;;;70.20;30.35;;;;;;;;;;5073123;28;20225;-65
2022/11/21 14:43:30;;;;;;;59.75;29.00;;;;;;;;;;5107256;28;20718;-65
2022/11/21 14:45:57;;;;;;;55.40;27.85;;;;;;;;;;5113742;28;20228;-64
2022/11/21 14:48:27;;;;;;;56.53;28.30;;;;;;;;;;5113490;28;20230;-65
2022/11/21 14:50:57;;;;;;;65.90;29.58;;;;;;;;;;5113628;28;20301;-66
2022/11/21 14:53:25;;;;;;;62.63;29.27;;;;;;;;;;5113862;28;20198;-64
2022/11/21 14:55:53;;;;;;;61.55;31.08;;;;;;;;;;5113497;28;20203;-66
2022/11/21 14:58:21;;;;;;;68.32;29.73;;;;;;;;;;5113675;28;20559;-65
2022/11/21 15:01:04;;;;;;;62.80;29.83;;;;;;;;;;5113551;28;20283;-65
2022/11/21 15:03:31;;;;;;;63.65;27.58;;;;;;;;;;5113658;28;20556;-65
2022/11/21 15:06:01;;;;;;;61.85;29.85;;;;;;;;;;5113228;28;20214;-65
2022/11/21 15:08:28;;;;;;;64.97;30.25;;;;;;;;;;5113609;28;20618;-65